Schell City, Missouri
Current Conditions -  °F | °C
As of 8:35 AM on Thursday 27 Nov 2014 (Local Time) from KGLY Reporting Station
Overcast Overcast  
Wind Chill: 24°   Ceiling: 1400
Heat Index: 30°   Visibility: 7mi
Dew Point: 27°   Wind: 6mph
Humidity: 86%   Direction: 330°NNW
Pressure: 30.54"   Gusts: NA
Location:  38.02°N, 94.12°W
Report Text: KGLY 271435Z AUTO 33005KT 7SM OVC014 M01/M03 A3054 RMK AO2
Loading
Personal Weather Stations






























Interactive Weather Map New forecast layout! Learn more

10-Day Weather Forecast

Advertisements
Track Severe Weather on mobile